createdAt,value
2023-01-26T00:01:52.571Z,101542.19
2023-01-26T00:04:19.400Z,101543.38
2023-01-26T00:06:46.134Z,101548.66
2023-01-26T00:09:14.391Z,101576.22
2023-01-26T00:11:41.222Z,101561.75
2023-01-26T00:14:07.991Z,101564.91
2023-01-26T00:16:34.533Z,101574.09
2023-01-26T00:19:01.456Z,101573.59
2023-01-26T00:21:28.347Z,101563.69
2023-01-26T00:23:54.937Z,101568.31
2023-01-26T00:26:22.907Z,101563.97
2023-01-26T00:28:49.600Z,101554.94
2023-01-26T00:31:18.186Z,101548.91
2023-01-26T00:33:44.924Z,101562.56
2023-01-26T00:36:11.740Z,101568.50
2023-01-26T00:38:38.593Z,101563.78
2023-01-26T00:41:05.320Z,101562.94
2023-01-26T00:43:31.986Z,101557.63
2023-01-26T00:45:58.788Z,101565.97
2023-01-26T00:48:25.427Z,101560.41
2023-01-26T00:50:52.363Z,101562.09
2023-01-26T00:53:18.979Z,101561.00
2023-01-26T00:55:45.547Z,101556.53
2023-01-26T00:58:12.345Z,101560.41
2023-01-26T01:00:39.025Z,101553.13
2023-01-26T01:03:05.966Z,101540.31
2023-01-26T01:05:33.151Z,101548.03
2023-01-26T01:07:59.820Z,101549.13
2023-01-26T01:10:29.348Z,101552.75
2023-01-26T01:12:56.806Z,101536.91
2023-01-26T01:15:23.809Z,101548.03
2023-01-26T01:17:50.541Z,101559.16
2023-01-26T01:20:17.295Z,101559.16
2023-01-26T01:22:43.924Z,101554.47
2023-01-26T01:25:10.450Z,101549.75
2023-01-26T01:27:37.188Z,101554.47
2023-01-26T01:30:07.853Z,101556.63
2023-01-26T01:32:35.224Z,101553.22
2023-01-26T01:35:01.906Z,101561.66
2023-01-26T01:37:29.082Z,101560.22
2023-01-26T01:39:55.675Z,101545.34
2023-01-26T01:42:22.641Z,101547.50
2023-01-26T01:45:09.164Z,101545.22
2023-01-26T01:47:35.726Z,101540.13
2023-01-26T01:50:04.625Z,101537.81
2023-01-26T01:52:31.518Z,101537.81
2023-01-26T01:54:58.063Z,101528.38
2023-01-26T01:57:28.830Z,101517.25
2023-01-26T02:00:18.786Z,101519.56
2023-01-26T02:03:06.164Z,101522.34
2023-01-26T02:05:33.475Z,101530.44
2023-01-26T02:08:00.346Z,101525.97
2023-01-26T02:10:27.007Z,101519.31
2023-01-26T02:12:59.794Z,101517.41
2023-01-26T02:15:26.615Z,101515.22
2023-01-26T02:17:53.498Z,101511.34
2023-01-26T02:20:34.511Z,101507.25
2023-01-26T02:23:01.235Z,101496.38
2023-01-26T02:25:54.019Z,101488.03
2023-01-26T02:28:25.144Z,101480.66
2023-01-26T02:30:51.753Z,101473.25
2023-01-26T02:33:22.075Z,101458.00
2023-01-26T02:35:48.839Z,101459.44
2023-01-26T02:38:15.647Z,101465.69
2023-01-26T02:41:02.616Z,101457.47
2023-01-26T02:43:29.405Z,101467.06
2023-01-26T02:45:56.137Z,101479.34
2023-01-26T02:48:41.632Z,101482.03
2023-01-26T02:51:08.253Z,101474.03
2023-01-26T02:53:34.965Z,101489.53
2023-01-26T02:56:01.780Z,101481.38
2023-01-26T02:58:28.371Z,101472.03
2023-01-26T03:00:54.938Z,101468.72
2023-01-26T03:03:23.106Z,101478.44
2023-01-26T03:05:49.774Z,101477.50
2023-01-26T03:08:16.357Z,101473.34
2023-01-26T03:10:43.081Z,101473.03
2023-01-26T03:13:09.685Z,101472.72
2023-01-26T03:15:52.930Z,101469.66
2023-01-26T03:18:38.299Z,101462.31
2023-01-26T03:21:24.599Z,101455.19
2023-01-26T03:24:10.159Z,101455.81
2023-01-26T03:26:55.256Z,101453.88
2023-01-26T03:29:21.952Z,101449.66
2023-01-26T03:31:48.576Z,101450.53
2023-01-26T03:34:15.377Z,101441.69
2023-01-26T03:36:41.964Z,101444.00
2023-01-26T03:39:08.516Z,101436.31
2023-01-26T03:41:53.961Z,101428.59
2023-01-26T03:44:39.313Z,101421.31
2023-01-26T03:47:24.595Z,101440.53
2023-01-26T03:50:09.825Z,101441.38
2023-01-26T03:52:55.389Z,101441.38
2023-01-26T03:55:40.649Z,101446.31
2023-01-26T03:58:08.826Z,101445.84
2023-01-26T04:00:35.404Z,101441.38
2023-01-26T04:03:20.613Z,101454.19
2023-01-26T04:06:15.742Z,101454.19
2023-01-26T04:08:44.862Z,101450.31
2023-01-26T04:11:11.422Z,101443.69
2023-01-26T04:13:56.937Z,101426.41
2023-01-26T04:16:42.161Z,101426.41
2023-01-26T04:19:27.273Z,101423.03
2023-01-26T04:21:53.921Z,101413.63
2023-01-26T04:24:22.533Z,101416.03
2023-01-26T04:26:49.396Z,101421.78
2023-01-26T04:29:16.325Z,101429.53
2023-01-26T04:31:43.043Z,101423.34
2023-01-26T04:34:13.553Z,101413.34
2023-01-26T04:36:40.284Z,101406.31
2023-01-26T04:39:06.857Z,101403.53
2023-01-26T04:41:34.345Z,101404.63
2023-01-26T04:44:00.895Z,101412.13
2023-01-26T04:46:27.519Z,101412.34
2023-01-26T04:48:54.137Z,101414.28
2023-01-26T04:51:21.432Z,101410.28
2023-01-26T04:53:48.311Z,101409.44
2023-01-26T04:56:22.925Z,101401.09
2023-01-26T04:58:49.480Z,101413.03
2023-01-26T05:01:16.192Z,101401.69
2023-01-26T05:03:42.918Z,101394.47
2023-01-26T05:06:09.561Z,101389.53
2023-01-26T05:08:36.555Z,101389.75
2023-01-26T05:11:03.340Z,101388.06
2023-01-26T05:13:29.867Z,101387.44
2023-01-26T05:15:56.420Z,101386.59
2023-01-26T05:18:23.147Z,101389.16
2023-01-26T05:20:49.707Z,101395.78
2023-01-26T05:23:16.267Z,101397.47
2023-01-26T05:25:43.030Z,101385.75
2023-01-26T05:28:09.658Z,101386.47
2023-01-26T05:30:36.316Z,101375.00
2023-01-26T05:33:06.540Z,101377.13
2023-01-26T05:35:33.186Z,101383.16
2023-01-26T05:37:59.816Z,101380.38
2023-01-26T05:40:26.459Z,101379.53
2023-01-26T05:42:53.265Z,101364.19
2023-01-26T05:45:20.025Z,101371.94
2023-01-26T05:47:46.765Z,101363.81
2023-01-26T05:50:13.694Z,101357.69
2023-01-26T05:52:40.473Z,101358.72
2023-01-26T05:55:07.387Z,101349.56
2023-01-26T05:57:33.980Z,101349.81
2023-01-26T06:00:03.508Z,101354.50
2023-01-26T06:02:30.272Z,101350.88
2023-01-26T06:04:56.939Z,101345.09
2023-01-26T06:07:23.498Z,101339.09
2023-01-26T06:09:50.252Z,101341.63
2023-01-26T06:12:17.778Z,101333.66
2023-01-26T06:14:46.974Z,101338.75
2023-01-26T06:17:14.179Z,101336.59
2023-01-26T06:19:40.774Z,101331.06
2023-01-26T06:22:08.051Z,101336.34
2023-01-26T06:24:34.840Z,101342.28
2023-01-26T06:27:01.567Z,101324.78
2023-01-26T06:29:28.235Z,101324.78
2023-01-26T06:31:55.058Z,101322.84
2023-01-26T06:34:22.110Z,101326.47
2023-01-26T06:36:48.652Z,101317.09
2023-01-26T06:39:17.132Z,101321.28
2023-01-26T06:41:44.569Z,101318.28
2023-01-26T06:44:11.268Z,101305.00
2023-01-26T06:46:38.075Z,101305.88
2023-01-26T06:49:04.721Z,101310.34
2023-01-26T06:51:43.740Z,101318.19
2023-01-26T06:54:10.760Z,101320.50
2023-01-26T06:56:37.428Z,101302.75
2023-01-26T06:59:04.531Z,101306.63
2023-01-26T07:01:32.953Z,101298.53
2023-01-26T07:03:59.847Z,101303.69
2023-01-26T07:06:26.632Z,101319.13
2023-01-26T07:08:53.202Z,101299.44
2023-01-26T07:11:20.716Z,101312.38
2023-01-26T07:13:47.587Z,101315.63
2023-01-26T07:16:16.068Z,101303.91
2023-01-26T07:18:42.823Z,101309.31
2023-01-26T07:21:18.523Z,101308.94
2023-01-26T07:23:45.572Z,101316.91
2023-01-26T07:26:12.245Z,101320.13
2023-01-26T07:28:40.408Z,101319.97
2023-01-26T07:31:07.272Z,101321.53
2023-01-26T07:33:34.099Z,101226.53
2023-01-26T07:36:01.113Z,101321.41
2023-01-26T07:38:29.400Z,101324.16
2023-01-26T07:40:56.056Z,101324.78
2023-01-26T07:43:22.827Z,101325.59
2023-01-26T07:45:52.781Z,101311.28
2023-01-26T07:48:19.855Z,101326.63
2023-01-26T07:50:47.870Z,101330.59
2023-01-26T07:53:15.463Z,101335.69
2023-01-26T07:55:44.988Z,101333.06
2023-01-26T07:58:11.814Z,101335.50
2023-01-26T08:00:38.786Z,101319.22
2023-01-26T08:03:05.549Z,101321.28
2023-01-26T08:05:32.542Z,101326.84
2023-01-26T08:07:59.851Z,101327.94
2023-01-26T08:10:31.708Z,101340.72
2023-01-26T08:13:01.504Z,101315.16
2023-01-26T08:15:28.337Z,101311.28
2023-01-26T08:17:55.379Z,101294.38
2023-01-26T08:20:22.159Z,101302.13
2023-01-26T08:22:48.911Z,101312.59
2023-01-26T08:25:15.581Z,101323.09
2023-01-26T08:27:42.228Z,101325.03
2023-01-26T08:30:09.699Z,101319.50
2023-01-26T08:32:36.610Z,101317.94
2023-01-26T08:35:03.345Z,101327.22
2023-01-26T08:37:29.993Z,101331.00
2023-01-26T08:39:56.855Z,101320.63
2023-01-26T08:42:23.529Z,101320.53
2023-01-26T08:44:50.075Z,101309.31
2023-01-26T08:47:16.699Z,101306.91
2023-01-26T08:49:43.241Z,101317.91
2023-01-26T08:52:09.810Z,101326.63
2023-01-26T08:54:36.517Z,101323.97
2023-01-26T08:57:03.159Z,101332.44
2023-01-26T08:59:29.700Z,101322.53
2023-01-26T09:01:56.450Z,101329.28
2023-01-26T09:04:23.169Z,101326.41
2023-01-26T09:06:49.780Z,101327.63
2023-01-26T09:09:16.524Z,101323.50
2023-01-26T09:11:43.060Z,101327.97
2023-01-26T09:14:09.633Z,101327.47
2023-01-26T09:16:36.405Z,101320.06
2023-01-26T09:19:03.334Z,101328.97
2023-01-26T09:21:29.897Z,101329.34
2023-01-26T09:23:57.314Z,101325.78
2023-01-26T09:26:24.250Z,101316.38
2023-01-26T09:28:51.687Z,101313.13
2023-01-26T09:31:18.460Z,101315.66
2023-01-26T09:33:45.545Z,101330.72
2023-01-26T09:36:12.472Z,101333.16
2023-01-26T09:38:40.241Z,101321.91
2023-01-26T09:41:13.050Z,101327.13
2023-01-26T09:43:42.678Z,101331.66
2023-01-26T09:46:27.729Z,101342.66
2023-01-26T09:49:00.638Z,101330.78
2023-01-26T09:51:40.263Z,101323.59
2023-01-26T09:54:17.232Z,101316.59
2023-01-26T09:56:43.780Z,101316.38
2023-01-26T09:59:16.433Z,101312.03
2023-01-26T10:01:49.959Z,101305.56
2023-01-26T10:04:23.467Z,101305.66
2023-01-26T10:06:51.499Z,101303.59
2023-01-26T10:09:21.409Z,101316.53
2023-01-26T10:12:13.176Z,101306.34
2023-01-26T10:14:58.623Z,101302.03
2023-01-26T10:17:25.285Z,101299.63
2023-01-26T10:19:56.024Z,101295.88
2023-01-26T10:22:27.829Z,101291.53
2023-01-26T10:24:54.385Z,101286.28
2023-01-26T10:27:22.566Z,101290.91
2023-01-26T10:29:49.251Z,101289.00
2023-01-26T10:32:16.619Z,101284.91
2023-01-26T10:34:43.634Z,101297.06
2023-01-26T10:37:28.882Z,101288.47
2023-01-26T10:40:04.800Z,101285.34
2023-01-26T10:42:31.994Z,101280.19
2023-01-26T10:45:02.352Z,101275.56
2023-01-26T10:47:30.276Z,101275.81
2023-01-26T10:50:15.652Z,101273.28
2023-01-26T10:52:56.498Z,101265.25
2023-01-26T10:55:23.117Z,101262.03
2023-01-26T10:57:49.733Z,101252.81
2023-01-26T11:00:20.351Z,101242.25
2023-01-26T11:02:50.860Z,101234.66
2023-01-26T11:05:21.814Z,101229.56
2023-01-26T11:07:53.035Z,101226.97
2023-01-26T11:10:19.773Z,101217.19
2023-01-26T11:12:46.761Z,101220.41
2023-01-26T11:15:25.644Z,101206.06
2023-01-26T11:17:56.814Z,101201.84
2023-01-26T11:20:39.898Z,101203.81
2023-01-26T11:23:12.654Z,101206.09
2023-01-26T11:25:49.383Z,101202.69
2023-01-26T11:28:34.683Z,101195.44
2023-01-26T11:31:07.516Z,101197.69
2023-01-26T11:33:37.147Z,101195.13
2023-01-26T11:36:14.787Z,101195.97
2023-01-26T11:38:42.097Z,101189.13
2023-01-26T11:41:11.421Z,101115.81
2023-01-26T11:43:39.814Z,101181.25
2023-01-26T11:46:10.745Z,101170.00
2023-01-26T11:48:43.435Z,101165.13
2023-01-26T11:51:21.512Z,101169.25
2023-01-26T11:54:01.873Z,101156.81
2023-01-26T11:56:32.052Z,101147.03
2023-01-26T11:59:02.546Z,101127.34
2023-01-26T12:01:34.512Z,101133.94
2023-01-26T12:04:01.143Z,101132.59
2023-01-26T12:06:35.037Z,101125.31
2023-01-26T12:09:25.022Z,101119.28
2023-01-26T12:12:02.289Z,101109.56
2023-01-26T12:14:32.009Z,101103.19
2023-01-26T12:17:19.889Z,101096.19
2023-01-26T12:20:07.473Z,101100.75
2023-01-26T12:22:35.891Z,101094.94
2023-01-26T12:25:24.759Z,101095.69
2023-01-26T12:27:53.944Z,101084.56
2023-01-26T12:30:41.899Z,101085.34
2023-01-26T12:33:09.660Z,101080.03
2023-01-26T12:35:57.409Z,101073.59
2023-01-26T12:38:26.124Z,101068.00
2023-01-26T12:40:55.508Z,101058.56
2023-01-26T12:43:40.135Z,101048.97
2023-01-26T12:46:06.757Z,101053.03
2023-01-26T12:48:49.884Z,101035.34
2023-01-26T12:51:26.632Z,101032.56
2023-01-26T12:54:11.732Z,101025.41
2023-01-26T12:56:42.699Z,101023.50
2023-01-26T12:59:28.325Z,101008.81
2023-01-26T13:02:30.269Z,101009.38
2023-01-26T13:04:57.728Z,101000.09
2023-01-26T13:07:28.562Z,100991.25
2023-01-26T13:10:15.508Z,100981.47
2023-01-26T13:12:49.507Z,100958.72
2023-01-26T13:15:16.949Z,100957.59
2023-01-26T13:17:57.873Z,100946.25
2023-01-26T13:20:40.146Z,100944.75
2023-01-26T13:23:26.640Z,100947.38
2023-01-26T13:26:11.902Z,100935.44
2023-01-26T13:28:40.294Z,100917.13
2023-01-26T13:31:12.998Z,100916.66
2023-01-26T13:33:40.476Z,100916.03
2023-01-26T13:36:12.132Z,100913.00
2023-01-26T13:38:43.420Z,100914.84
2023-01-26T13:41:21.182Z,100909.06
2023-01-26T13:43:52.541Z,100909.13
2023-01-26T13:46:19.504Z,100908.28
2023-01-26T13:48:56.078Z,100908.66
2023-01-26T13:51:24.097Z,100909.34
2023-01-26T13:53:55.007Z,100901.59
2023-01-26T13:56:23.097Z,100896.59
2023-01-26T13:58:52.302Z,100889.69
2023-01-26T14:01:19.003Z,100886.09
2023-01-26T14:03:45.717Z,100882.75
2023-01-26T14:06:14.843Z,100880.53
2023-01-26T14:08:52.874Z,100878.34
2023-01-26T14:11:22.732Z,100870.56
2023-01-26T14:13:53.184Z,100867.25
2023-01-26T14:16:35.186Z,100856.63
2023-01-26T14:19:15.221Z,100845.41
2023-01-26T14:21:45.184Z,100835.09
2023-01-26T14:24:12.021Z,100838.25
2023-01-26T14:26:40.665Z,100834.41
2023-01-26T14:29:27.798Z,100820.72
2023-01-26T14:31:55.080Z,100815.47
2023-01-26T14:34:22.713Z,100818.88
2023-01-26T14:36:49.496Z,100813.25
2023-01-26T14:39:17.005Z,100813.25
2023-01-26T14:41:46.089Z,100795.06
2023-01-26T14:44:12.915Z,100807.72
2023-01-26T14:47:00.084Z,100802.13
2023-01-26T14:49:43.679Z,100792.13
2023-01-26T14:52:42.353Z,100793.53
2023-01-26T14:55:23.858Z,100784.31
2023-01-26T14:57:52.116Z,100783.25
2023-01-26T15:00:29.204Z,100789.44
2023-01-26T15:02:56.351Z,100784.97
2023-01-26T15:05:23.791Z,100771.53
2023-01-26T15:08:03.023Z,100781.38
2023-01-26T15:10:42.626Z,100775.47
2023-01-26T15:13:16.727Z,100773.53
2023-01-26T15:15:50.402Z,100778.88
2023-01-26T15:18:18.439Z,100778.06
2023-01-26T15:20:50.675Z,100788.47
2023-01-26T15:23:37.673Z,100794.34
2023-01-26T15:26:14.498Z,100796.34
2023-01-26T15:28:41.164Z,100801.94
2023-01-26T15:31:08.230Z,100804.47
2023-01-26T15:33:40.693Z,100804.47
2023-01-26T15:36:18.869Z,100799.69
2023-01-26T15:38:45.442Z,100792.41
2023-01-26T15:41:13.856Z,100789.06
2023-01-26T15:43:40.414Z,100784.88
2023-01-26T15:46:08.145Z,100770.59
2023-01-26T15:48:37.296Z,100769.75
2023-01-26T15:51:03.874Z,100761.09
2023-01-26T15:53:32.076Z,100753.00
2023-01-26T15:56:01.072Z,100757.50
2023-01-26T15:58:29.115Z,100748.00
2023-01-26T16:00:55.700Z,100772.72
2023-01-26T16:03:22.700Z,100774.66
2023-01-26T16:05:49.424Z,100778.00
2023-01-26T16:08:16.610Z,100774.06
2023-01-26T16:10:45.417Z,100786.41
2023-01-26T16:13:13.274Z,100787.47
2023-01-26T16:15:41.795Z,100791.38
2023-01-26T16:18:11.124Z,100781.53
2023-01-26T16:20:38.896Z,100794.41
2023-01-26T16:23:24.969Z,100782.06
2023-01-26T16:25:54.142Z,100779.25
2023-01-26T16:28:21.321Z,100783.19
2023-01-26T16:30:48.411Z,100790.22
2023-01-26T16:33:15.970Z,100786.34
2023-01-26T16:35:47.712Z,100784.94
2023-01-26T16:38:14.279Z,100788.66
2023-01-26T16:40:41.391Z,100810.00
2023-01-26T16:43:28.108Z,100810.03
2023-01-26T16:45:57.288Z,100802.75
2023-01-26T16:48:27.115Z,100815.16
2023-01-26T16:50:53.855Z,100813.53
2023-01-26T16:53:24.571Z,100818.03
2023-01-26T16:55:51.237Z,100808.81
2023-01-26T16:58:17.857Z,100809.97
2023-01-26T17:00:51.704Z,100815.31
2023-01-26T17:03:18.562Z,100822.94
2023-01-26T17:05:46.581Z,100828.28
2023-01-26T17:08:13.188Z,100820.19
2023-01-26T17:10:48.936Z,100828.03
2023-01-26T17:13:26.312Z,100827.78
2023-01-26T17:15:54.010Z,100832.28
2023-01-26T17:18:20.841Z,100835.09
2023-01-26T17:20:52.169Z,100841.28
2023-01-26T17:23:18.843Z,100839.34
2023-01-26T17:25:45.497Z,100844.69
2023-01-26T17:28:13.148Z,100852.00
2023-01-26T17:30:42.614Z,100850.03
2023-01-26T17:33:10.743Z,100858.16
2023-01-26T17:35:37.449Z,100853.44
2023-01-26T17:38:04.144Z,100852.31
2023-01-26T17:40:34.874Z,100849.25
2023-01-26T17:43:01.449Z,100839.75
2023-01-26T17:45:29.057Z,100847.88
2023-01-26T17:47:55.696Z,100848.72
2023-01-26T17:50:24.080Z,100842.84
2023-01-26T17:52:52.192Z,100848.19
2023-01-26T17:55:21.034Z,100859.94
2023-01-26T17:57:47.813Z,100850.13
2023-01-26T18:00:14.775Z,100856.59
2023-01-26T18:02:41.411Z,100857.16
2023-01-26T18:07:49.325Z,100855.22
2023-01-26T18:10:17.485Z,100863.03
2023-01-26T18:12:44.044Z,100866.13
2023-01-26T18:15:12.227Z,100861.91
2023-01-26T18:17:39.041Z,100868.88
2023-01-26T18:20:09.112Z,100863.84
2023-01-26T18:22:37.681Z,100873.94
2023-01-26T18:25:04.473Z,100879.81
2023-01-26T18:27:33.980Z,100882.34
2023-01-26T18:30:02.558Z,100887.38
2023-01-26T18:32:29.134Z,100900.25
2023-01-26T18:34:55.728Z,100892.13
2023-01-26T18:37:24.798Z,100879.50
2023-01-26T18:39:51.398Z,100892.41
2023-01-26T18:42:18.015Z,100895.47
2023-01-26T18:44:46.701Z,100901.34
2023-01-26T18:47:13.621Z,100894.34
2023-01-26T18:49:40.227Z,100903.00
2023-01-26T18:52:09.677Z,100904.13
2023-01-26T18:54:36.584Z,100906.09
2023-01-26T18:57:03.112Z,100899.66
2023-01-26T18:59:29.848Z,100907.47
2023-01-26T19:01:56.567Z,100910.56
2023-01-26T19:04:23.202Z,100903.56
2023-01-26T19:06:51.122Z,100909.16
2023-01-26T19:09:21.929Z,100910.28
2023-01-26T19:11:48.537Z,100910.28
2023-01-26T19:14:16.641Z,100909.72
2023-01-26T19:16:44.204Z,100917.25
2023-01-26T19:19:13.246Z,100914.75
2023-01-26T19:21:39.834Z,100928.16
2023-01-26T19:24:09.589Z,100921.16
2023-01-26T19:26:39.029Z,100921.44
2023-01-26T19:29:07.173Z,100928.44
2023-01-26T19:31:34.959Z,100925.63
2023-01-26T19:34:02.639Z,100929.22
2023-01-26T19:36:29.779Z,100931.47
2023-01-26T19:38:56.497Z,100924.47
2023-01-26T19:41:23.206Z,100927.53
2023-01-26T19:43:50.554Z,100923.34
2023-01-26T19:46:17.295Z,100926.41
2023-01-26T19:48:44.077Z,100920.28
2023-01-26T19:51:11.701Z,100921.38
2023-01-26T19:53:39.298Z,100924.44
2023-01-26T19:56:09.795Z,100930.28
2023-01-26T19:58:36.658Z,100932.53
2023-01-26T20:01:12.652Z,100934.75
2023-01-26T20:03:39.416Z,100944.50
2023-01-26T20:06:06.192Z,100943.13
2023-01-26T20:08:32.935Z,100937.81
2023-01-26T20:11:06.116Z,100939.22
2023-01-26T20:13:33.145Z,100933.59
2023-01-26T20:15:59.845Z,100931.91
2023-01-26T20:18:26.845Z,100934.97
2023-01-26T20:20:53.980Z,100935.50
2023-01-26T20:23:21.288Z,100940.25
2023-01-26T20:25:47.979Z,100938.00
2023-01-26T20:28:14.856Z,100942.19
2023-01-26T20:30:41.626Z,100938.00
2023-01-26T20:33:08.225Z,100941.91
2023-01-26T20:35:35.297Z,100950.53
2023-01-26T20:38:01.932Z,100941.63
2023-01-26T20:40:29.199Z,100942.69
2023-01-26T20:42:55.973Z,100945.50
2023-01-26T20:45:24.154Z,100954.16
2023-01-26T20:47:51.144Z,100850.47
2023-01-26T20:50:17.871Z,100940.97
2023-01-26T20:52:44.655Z,100944.91
2023-01-26T20:55:13.334Z,100939.84
2023-01-26T20:57:40.199Z,100942.34
2023-01-26T21:00:07.360Z,100950.16
2023-01-26T21:02:33.914Z,100951.53
2023-01-26T21:05:00.964Z,100947.91
2023-01-26T21:07:28.811Z,100945.38
2023-01-26T21:09:55.467Z,100961.28
2023-01-26T21:12:22.340Z,100955.72
2023-01-26T21:14:48.946Z,100965.19
2023-01-26T21:17:20.328Z,100954.88
2023-01-26T21:19:46.994Z,100966.88
2023-01-26T21:22:13.555Z,100957.94
2023-01-26T21:24:40.180Z,100967.41
2023-01-26T21:27:07.143Z,100964.63
2023-01-26T21:29:33.824Z,100967.41
2023-01-26T21:32:00.404Z,100962.09
2023-01-26T21:34:27.503Z,100969.66
2023-01-26T21:36:54.154Z,100972.44
2023-01-26T21:39:22.220Z,100976.31
2023-01-26T21:41:59.082Z,100980.22
2023-01-26T21:44:27.895Z,100981.06
2023-01-26T21:46:56.106Z,100976.59
2023-01-26T21:49:23.108Z,100981.34
2023-01-26T21:52:08.520Z,100972.97
2023-01-26T21:54:35.539Z,100977.72
2023-01-26T21:57:02.558Z,100977.97
2023-01-26T21:59:29.386Z,100977.41
2023-01-26T22:01:56.452Z,100967.31
2023-01-26T22:04:24.048Z,100969.53
2023-01-26T22:06:50.890Z,100963.97
2023-01-26T22:09:17.743Z,100964.50
2023-01-26T22:11:44.547Z,100973.94
2023-01-26T22:14:21.809Z,100977.03
2023-01-26T22:16:48.797Z,100980.09
2023-01-26T22:19:15.748Z,100979.50
2023-01-26T22:21:42.437Z,100984.50
2023-01-26T22:24:11.803Z,100986.75
2023-01-26T22:26:38.701Z,100993.41
2023-01-26T22:29:05.399Z,100998.44
2023-01-26T22:31:32.124Z,101000.63
2023-01-26T22:33:59.076Z,101012.31
2023-01-26T22:36:26.042Z,101011.78
2023-01-26T22:38:53.308Z,101009.50
2023-01-26T22:41:23.389Z,101013.94
2023-01-26T22:43:50.688Z,101010.56
2023-01-26T22:46:17.843Z,101017.50
2023-01-26T22:48:44.506Z,101009.41
2023-01-26T22:51:12.158Z,101009.41
2023-01-26T22:53:38.959Z,101007.75
2023-01-26T22:56:05.820Z,101013.88
2023-01-26T22:58:33.374Z,101008.88
2023-01-26T23:01:04.132Z,101006.66
2023-01-26T23:03:30.842Z,101010.88
2023-01-26T23:06:04.257Z,101019.00
2023-01-26T23:08:31.007Z,101024.03
2023-01-26T23:11:05.049Z,101026.28
2023-01-26T23:13:31.709Z,101028.22
2023-01-26T23:16:01.224Z,101027.41
2023-01-26T23:18:29.247Z,101022.94
2023-01-26T23:20:56.073Z,101023.19
2023-01-26T23:23:22.768Z,101017.88
2023-01-26T23:25:52.515Z,101017.28
2023-01-26T23:28:21.685Z,101025.34
2023-01-26T23:30:48.797Z,101023.09
2023-01-26T23:33:15.855Z,101016.34
2023-01-26T23:35:42.651Z,101013.84
2023-01-26T23:38:09.474Z,101028.88
2023-01-26T23:40:36.116Z,101022.75
2023-01-26T23:43:15.795Z,101023.81
2023-01-26T23:45:44.087Z,101019.94
2023-01-26T23:48:10.652Z,101019.94
2023-01-26T23:50:37.184Z,101018.00
2023-01-26T23:53:03.929Z,101026.59
2023-01-26T23:55:30.468Z,101028.56
2023-01-26T23:57:59.071Z,101035.25
